sensor_id;sensor_type;location;lat;lon;timestamp;P1;durP1;ratioP1;P2;durP2;ratioP2
76125;SDS011;65174;48.138;21.002;2024-02-14T00:01:50;6.90;;;3.25;;
76125;SDS011;65174;48.138;21.002;2024-02-14T00:04:52;6.38;;;3.75;;
76125;SDS011;65174;48.138;21.002;2024-02-14T00:07:55;6.82;;;4.00;;
76125;SDS011;65174;48.138;21.002;2024-02-14T00:10:56;5.87;;;3.93;;
76125;SDS011;65174;48.138;21.002;2024-02-14T00:13:58;9.30;;;4.13;;
76125;SDS011;65174;48.138;21.002;2024-02-14T00:17:01;9.23;;;3.70;;
76125;SDS011;65174;48.138;21.002;2024-02-14T00:20:04;7.18;;;4.10;;
76125;SDS011;65174;48.138;21.002;2024-02-14T00:23:06;6.30;;;3.33;;
76125;SDS011;65174;48.138;21.002;2024-02-14T00:26:08;5.93;;;3.00;;
76125;SDS011;65174;48.138;21.002;2024-02-14T00:29:10;9.32;;;3.90;;
76125;SDS011;65174;48.138;21.002;2024-02-14T00:32:12;7.20;;;3.60;;
76125;SDS011;65174;48.138;21.002;2024-02-14T00:35:14;6.45;;;3.65;;
76125;SDS011;65174;48.138;21.002;2024-02-14T00:38:16;7.40;;;3.58;;
76125;SDS011;65174;48.138;21.002;2024-02-14T00:44:54;5.38;;;3.13;;
76125;SDS011;65174;48.138;21.002;2024-02-14T00:47:56;7.47;;;3.70;;
76125;SDS011;65174;48.138;21.002;2024-02-14T00:50:58;6.93;;;3.72;;
76125;SDS011;65174;48.138;21.002;2024-02-14T00:54:01;6.57;;;3.58;;
76125;SDS011;65174;48.138;21.002;2024-02-14T00:57:03;7.17;;;2.83;;
76125;SDS011;65174;48.138;21.002;2024-02-14T01:00:06;5.05;;;2.90;;
76125;SDS011;65174;48.138;21.002;2024-02-14T01:03:08;8.38;;;3.30;;
76125;SDS011;65174;48.138;21.002;2024-02-14T01:06:14;8.10;;;3.38;;
76125;SDS011;65174;48.138;21.002;2024-02-14T01:09:18;5.60;;;3.35;;
76125;SDS011;65174;48.138;21.002;2024-02-14T01:12:21;10.67;;;3.70;;
76125;SDS011;65174;48.138;21.002;2024-02-14T01:15:22;8.50;;;3.45;;
76125;SDS011;65174;48.138;21.002;2024-02-14T01:18:24;9.05;;;3.03;;
76125;SDS011;65174;48.138;21.002;2024-02-14T01:21:27;9.40;;;3.35;;
76125;SDS011;65174;48.138;21.002;2024-02-14T01:24:29;6.90;;;3.40;;
76125;SDS011;65174;48.138;21.002;2024-02-14T01:27:32;4.93;;;2.80;;
76125;SDS011;65174;48.138;21.002;2024-02-14T01:30:34;4.80;;;2.85;;
76125;SDS011;65174;48.138;21.002;2024-02-14T01:33:37;4.93;;;3.00;;
76125;SDS011;65174;48.138;21.002;2024-02-14T01:36:40;5.82;;;3.78;;
76125;SDS011;65174;48.138;21.002;2024-02-14T01:39:42;10.38;;;3.13;;
76125;SDS011;65174;48.138;21.002;2024-02-14T01:42:44;6.57;;;3.47;;
76125;SDS011;65174;48.138;21.002;2024-02-14T01:45:46;7.50;;;3.85;;
76125;SDS011;65174;48.138;21.002;2024-02-14T01:48:48;9.75;;;4.13;;
76125;SDS011;65174;48.138;21.002;2024-02-14T01:51:51;6.50;;;3.25;;
76125;SDS011;65174;48.138;21.002;2024-02-14T01:54:53;9.50;;;3.95;;
76125;SDS011;65174;48.138;21.002;2024-02-14T01:57:56;3.80;;;2.63;;
76125;SDS011;65174;48.138;21.002;2024-02-14T02:00:59;6.43;;;2.90;;
76125;SDS011;65174;48.138;21.002;2024-02-14T02:04:02;8.85;;;3.38;;
76125;SDS011;65174;48.138;21.002;2024-02-14T02:07:05;7.72;;;3.50;;
76125;SDS011;65174;48.138;21.002;2024-02-14T02:10:07;4.30;;;2.95;;
76125;SDS011;65174;48.138;21.002;2024-02-14T02:13:10;7.07;;;2.93;;
76125;SDS011;65174;48.138;21.002;2024-02-14T02:16:12;7.95;;;3.25;;
76125;SDS011;65174;48.138;21.002;2024-02-14T02:19:16;7.00;;;3.03;;
76125;SDS011;65174;48.138;21.002;2024-02-14T02:22:19;7.45;;;2.83;;
76125;SDS011;65174;48.138;21.002;2024-02-14T02:25:20;4.35;;;2.75;;
76125;SDS011;65174;48.138;21.002;2024-02-14T02:28:26;4.47;;;2.47;;
76125;SDS011;65174;48.138;21.002;2024-02-14T02:31:28;5.57;;;2.83;;
76125;SDS011;65174;48.138;21.002;2024-02-14T02:34:30;5.45;;;2.90;;
76125;SDS011;65174;48.138;21.002;2024-02-14T02:37:33;6.32;;;2.90;;
76125;SDS011;65174;48.138;21.002;2024-02-14T02:40:35;5.53;;;2.67;;
76125;SDS011;65174;48.138;21.002;2024-02-14T02:43:37;3.30;;;1.90;;
76125;SDS011;65174;48.138;21.002;2024-02-14T02:46:39;7.40;;;2.22;;
76125;SDS011;65174;48.138;21.002;2024-02-14T02:49:41;2.70;;;1.88;;
76125;SDS011;65174;48.138;21.002;2024-02-14T02:52:44;2.88;;;2.10;;
76125;SDS011;65174;48.138;21.002;2024-02-14T02:55:46;3.30;;;2.08;;
76125;SDS011;65174;48.138;21.002;2024-02-14T02:58:48;8.53;;;2.73;;
76125;SDS011;65174;48.138;21.002;2024-02-14T03:01:50;3.83;;;2.60;;
76125;SDS011;65174;48.138;21.002;2024-02-14T03:04:52;4.50;;;2.72;;
76125;SDS011;65174;48.138;21.002;2024-02-14T03:07:54;5.60;;;2.30;;
76125;SDS011;65174;48.138;21.002;2024-02-14T03:11:04;8.52;;;2.67;;
76125;SDS011;65174;48.138;21.002;2024-02-14T03:14:07;4.27;;;1.97;;
76125;SDS011;65174;48.138;21.002;2024-02-14T03:17:09;4.05;;;2.13;;
76125;SDS011;65174;48.138;21.002;2024-02-14T03:20:12;3.00;;;2.17;;
76125;SDS011;65174;48.138;21.002;2024-02-14T03:23:18;4.53;;;2.17;;
76125;SDS011;65174;48.138;21.002;2024-02-14T03:26:20;2.95;;;2.05;;
76125;SDS011;65174;48.138;21.002;2024-02-14T03:29:22;4.70;;;1.93;;
76125;SDS011;65174;48.138;21.002;2024-02-14T03:32:24;3.63;;;2.15;;
76125;SDS011;65174;48.138;21.002;2024-02-14T03:35:28;2.92;;;2.05;;
76125;SDS011;65174;48.138;21.002;2024-02-14T03:38:29;5.05;;;2.70;;
76125;SDS011;65174;48.138;21.002;2024-02-14T03:41:33;4.85;;;2.60;;
76125;SDS011;65174;48.138;21.002;2024-02-14T03:44:35;3.83;;;2.50;;
76125;SDS011;65174;48.138;21.002;2024-02-14T03:47:40;8.20;;;3.22;;
76125;SDS011;65174;48.138;21.002;2024-02-14T03:50:43;4.57;;;2.60;;
76125;SDS011;65174;48.138;21.002;2024-02-14T03:53:45;4.90;;;2.50;;
76125;SDS011;65174;48.138;21.002;2024-02-14T03:56:47;4.70;;;2.63;;
76125;SDS011;65174;48.138;21.002;2024-02-14T03:59:49;5.27;;;2.57;;
76125;SDS011;65174;48.138;21.002;2024-02-14T04:02:51;6.78;;;2.40;;
76125;SDS011;65174;48.138;21.002;2024-02-14T04:06:00;4.85;;;1.80;;
76125;SDS011;65174;48.138;21.002;2024-02-14T04:09:02;4.30;;;2.60;;
76125;SDS011;65174;48.138;21.002;2024-02-14T04:12:05;5.72;;;2.45;;
76125;SDS011;65174;48.138;21.002;2024-02-14T04:15:07;2.60;;;2.20;;
76125;SDS011;65174;48.138;21.002;2024-02-14T04:18:10;6.55;;;2.80;;
76125;SDS011;65174;48.138;21.002;2024-02-14T04:21:12;5.32;;;2.28;;
76125;SDS011;65174;48.138;21.002;2024-02-14T04:24:16;6.55;;;2.10;;
76125;SDS011;65174;48.138;21.002;2024-02-14T04:27:18;3.58;;;2.22;;
76125;SDS011;65174;48.138;21.002;2024-02-14T04:30:19;3.10;;;1.83;;
76125;SDS011;65174;48.138;21.002;2024-02-14T04:33:21;4.05;;;2.75;;
76125;SDS011;65174;48.138;21.002;2024-02-14T04:36:24;5.90;;;2.70;;
76125;SDS011;65174;48.138;21.002;2024-02-14T04:39:26;3.50;;;2.30;;
76125;SDS011;65174;48.138;21.002;2024-02-14T04:42:28;3.00;;;2.40;;
76125;SDS011;65174;48.138;21.002;2024-02-14T04:45:30;3.67;;;2.43;;
76125;SDS011;65174;48.138;21.002;2024-02-14T04:48:32;4.60;;;2.45;;
76125;SDS011;65174;48.138;21.002;2024-02-14T04:51:34;4.10;;;2.33;;
76125;SDS011;65174;48.138;21.002;2024-02-14T04:54:36;2.17;;;1.83;;
76125;SDS011;65174;48.138;21.002;2024-02-14T04:57:38;4.38;;;2.50;;
76125;SDS011;65174;48.138;21.002;2024-02-14T05:00:40;3.37;;;2.50;;
76125;SDS011;65174;48.138;21.002;2024-02-14T05:03:42;5.80;;;2.53;;
76125;SDS011;65174;48.138;21.002;2024-02-14T05:06:44;3.83;;;2.65;;
76125;SDS011;65174;48.138;21.002;2024-02-14T05:09:46;4.75;;;2.47;;
76125;SDS011;65174;48.138;21.002;2024-02-14T05:12:51;6.40;;;2.80;;
76125;SDS011;65174;48.138;21.002;2024-02-14T05:15:53;6.93;;;2.87;;
76125;SDS011;65174;48.138;21.002;2024-02-14T05:18:54;5.07;;;3.03;;
76125;SDS011;65174;48.138;21.002;2024-02-14T05:21:57;5.60;;;3.22;;
76125;SDS011;65174;48.138;21.002;2024-02-14T05:24:59;8.07;;;5.07;;
76125;SDS011;65174;48.138;21.002;2024-02-14T05:28:01;4.10;;;2.88;;
76125;SDS011;65174;48.138;21.002;2024-02-14T05:31:03;9.90;;;3.50;;
76125;SDS011;65174;48.138;21.002;2024-02-14T05:34:05;6.60;;;3.65;;
76125;SDS011;65174;48.138;21.002;2024-02-14T05:37:07;5.07;;;3.20;;
76125;SDS011;65174;48.138;21.002;2024-02-14T05:40:09;6.25;;;3.28;;
76125;SDS011;65174;48.138;21.002;2024-02-14T05:43:12;5.75;;;3.53;;
76125;SDS011;65174;48.138;21.002;2024-02-14T05:46:14;8.33;;;3.47;;
76125;SDS011;65174;48.138;21.002;2024-02-14T05:49:16;5.90;;;3.13;;
76125;SDS011;65174;48.138;21.002;2024-02-14T05:52:18;7.82;;;3.53;;
76125;SDS011;65174;48.138;21.002;2024-02-14T05:55:20;9.13;;;3.75;;
76125;SDS011;65174;48.138;21.002;2024-02-14T05:58:22;7.38;;;4.00;;
76125;SDS011;65174;48.138;21.002;2024-02-14T06:01:25;6.77;;;3.37;;
76125;SDS011;65174;48.138;21.002;2024-02-14T06:04:27;7.72;;;4.75;;
76125;SDS011;65174;48.138;21.002;2024-02-14T06:07:29;7.65;;;3.72;;
76125;SDS011;65174;48.138;21.002;2024-02-14T06:10:31;4.55;;;2.78;;
76125;SDS011;65174;48.138;21.002;2024-02-14T06:13:33;8.50;;;2.75;;
76125;SDS011;65174;48.138;21.002;2024-02-14T06:16:37;4.43;;;2.50;;
76125;SDS011;65174;48.138;21.002;2024-02-14T06:19:39;5.38;;;2.65;;
76125;SDS011;65174;48.138;21.002;2024-02-14T06:22:41;5.68;;;2.67;;
76125;SDS011;65174;48.138;21.002;2024-02-14T06:25:57;3.92;;;2.80;;
76125;SDS011;65174;48.138;21.002;2024-02-14T06:29:02;5.00;;;3.17;;
76125;SDS011;65174;48.138;21.002;2024-02-14T06:32:08;4.83;;;3.07;;
76125;SDS011;65174;48.138;21.002;2024-02-14T06:35:10;9.98;;;3.22;;
76125;SDS011;65174;48.138;21.002;2024-02-14T06:38:14;4.60;;;2.63;;
76125;SDS011;65174;48.138;21.002;2024-02-14T06:41:19;5.55;;;3.33;;
76125;SDS011;65174;48.138;21.002;2024-02-14T06:44:24;6.22;;;4.07;;
76125;SDS011;65174;48.138;21.002;2024-02-14T06:47:29;5.63;;;3.27;;
76125;SDS011;65174;48.138;21.002;2024-02-14T06:50:34;4.90;;;2.83;;
76125;SDS011;65174;48.138;21.002;2024-02-14T06:53:39;5.03;;;2.33;;
76125;SDS011;65174;48.138;21.002;2024-02-14T06:56:45;5.65;;;1.55;;
76125;SDS011;65174;48.138;21.002;2024-02-14T06:59:48;3.05;;;1.70;;
76125;SDS011;65174;48.138;21.002;2024-02-14T07:02:51;2.73;;;1.87;;
76125;SDS011;65174;48.138;21.002;2024-02-14T07:05:54;2.97;;;1.98;;
76125;SDS011;65174;48.138;21.002;2024-02-14T07:09:02;2.90;;;1.65;;
76125;SDS011;65174;48.138;21.002;2024-02-14T07:12:07;5.18;;;2.40;;
76125;SDS011;65174;48.138;21.002;2024-02-14T07:15:12;6.95;;;2.10;;
76125;SDS011;65174;48.138;21.002;2024-02-14T07:18:17;3.90;;;2.20;;
76125;SDS011;65174;48.138;21.002;2024-02-14T07:21:25;3.25;;;2.33;;
76125;SDS011;65174;48.138;21.002;2024-02-14T07:24:30;5.25;;;2.22;;
76125;SDS011;65174;48.138;21.002;2024-02-14T07:27:36;7.03;;;2.53;;
76125;SDS011;65174;48.138;21.002;2024-02-14T07:30:43;6.47;;;2.20;;
76125;SDS011;65174;48.138;21.002;2024-02-14T07:33:48;5.13;;;2.10;;
76125;SDS011;65174;48.138;21.002;2024-02-14T07:36:56;3.20;;;2.25;;
76125;SDS011;65174;48.138;21.002;2024-02-14T07:39:59;3.70;;;2.47;;
76125;SDS011;65174;48.138;21.002;2024-02-14T07:43:03;3.95;;;1.98;;
76125;SDS011;65174;48.138;21.002;2024-02-14T07:46:05;3.70;;;2.03;;
76125;SDS011;65174;48.138;21.002;2024-02-14T07:49:08;2.30;;;1.57;;
76125;SDS011;65174;48.138;21.002;2024-02-14T07:52:11;10.68;;;2.58;;
76125;SDS011;65174;48.138;21.002;2024-02-14T07:55:13;1.25;;;1.15;;
76125;SDS011;65174;48.138;21.002;2024-02-14T07:58:15;4.50;;;2.47;;
76125;SDS011;65174;48.138;21.002;2024-02-14T08:01:17;5.30;;;3.47;;
76125;SDS011;65174;48.138;21.002;2024-02-14T08:04:19;5.13;;;2.57;;
76125;SDS011;65174;48.138;21.002;2024-02-14T08:07:21;3.60;;;2.25;;
76125;SDS011;65174;48.138;21.002;2024-02-14T08:10:24;4.65;;;2.47;;
76125;SDS011;65174;48.138;21.002;2024-02-14T08:13:26;3.72;;;2.30;;
76125;SDS011;65174;48.138;21.002;2024-02-14T08:16:28;3.33;;;2.45;;
76125;SDS011;65174;48.138;21.002;2024-02-14T08:19:31;1.80;;;1.57;;
76125;SDS011;65174;48.138;21.002;2024-02-14T08:22:33;5.00;;;2.60;;
76125;SDS011;65174;48.138;21.002;2024-02-14T08:25:35;5.85;;;3.13;;
76125;SDS011;65174;48.138;21.002;2024-02-14T08:28:37;4.15;;;2.58;;
76125;SDS011;65174;48.138;21.002;2024-02-14T08:31:40;3.38;;;1.88;;
76125;SDS011;65174;48.138;21.002;2024-02-14T08:34:42;2.77;;;1.47;;
76125;SDS011;65174;48.138;21.002;2024-02-14T08:37:44;4.72;;;1.73;;
76125;SDS011;65174;48.138;21.002;2024-02-14T08:40:46;5.25;;;2.45;;
76125;SDS011;65174;48.138;21.002;2024-02-14T08:43:49;3.97;;;2.22;;
76125;SDS011;65174;48.138;21.002;2024-02-14T08:46:51;2.67;;;1.70;;
76125;SDS011;65174;48.138;21.002;2024-02-14T08:49:54;4.47;;;1.17;;
76125;SDS011;65174;48.138;21.002;2024-02-14T08:52:56;2.08;;;1.30;;
76125;SDS011;65174;48.138;21.002;2024-02-14T08:55:58;3.25;;;2.15;;
76125;SDS011;65174;48.138;21.002;2024-02-14T08:59:01;5.20;;;2.00;;
76125;SDS011;65174;48.138;21.002;2024-02-14T09:02:04;2.92;;;2.28;;
76125;SDS011;65174;48.138;21.002;2024-02-14T09:05:07;2.83;;;2.10;;
76125;SDS011;65174;48.138;21.002;2024-02-14T09:08:11;3.25;;;2.03;;
76125;SDS011;65174;48.138;21.002;2024-02-14T09:11:13;2.50;;;1.63;;
76125;SDS011;65174;48.138;21.002;2024-02-14T09:14:15;3.05;;;1.63;;
76125;SDS011;65174;48.138;21.002;2024-02-14T09:17:17;2.63;;;2.08;;
76125;SDS011;65174;48.138;21.002;2024-02-14T09:20:19;4.63;;;1.80;;
76125;SDS011;65174;48.138;21.002;2024-02-14T09:23:22;4.55;;;2.20;;
76125;SDS011;65174;48.138;21.002;2024-02-14T09:26:24;1.52;;;1.33;;
76125;SDS011;65174;48.138;21.002;2024-02-14T09:29:28;3.67;;;2.10;;
76125;SDS011;65174;48.138;21.002;2024-02-14T09:32:30;4.60;;;2.50;;
76125;SDS011;65174;48.138;21.002;2024-02-14T09:35:36;4.03;;;2.20;;
76125;SDS011;65174;48.138;21.002;2024-02-14T09:38:42;4.63;;;2.35;;
76125;SDS011;65174;48.138;21.002;2024-02-14T09:41:45;2.85;;;2.15;;
76125;SDS011;65174;48.138;21.002;2024-02-14T09:44:51;2.42;;;1.80;;
76125;SDS011;65174;48.138;21.002;2024-02-14T09:47:54;6.22;;;2.45;;
76125;SDS011;65174;48.138;21.002;2024-02-14T09:50:59;2.27;;;1.90;;
76125;SDS011;65174;48.138;21.002;2024-02-14T09:54:03;1.75;;;1.50;;
76125;SDS011;65174;48.138;21.002;2024-02-14T09:57:06;4.47;;;2.10;;
76125;SDS011;65174;48.138;21.002;2024-02-14T10:00:11;5.05;;;2.20;;
76125;SDS011;65174;48.138;21.002;2024-02-14T10:03:16;6.30;;;2.67;;
76125;SDS011;65174;48.138;21.002;2024-02-14T10:06:18;2.03;;;1.40;;
76125;SDS011;65174;48.138;21.002;2024-02-14T10:09:25;1.90;;;1.58;;
76125;SDS011;65174;48.138;21.002;2024-02-14T10:12:28;3.45;;;1.90;;
76125;SDS011;65174;48.138;21.002;2024-02-14T10:15:31;2.50;;;1.75;;
76125;SDS011;65174;48.138;21.002;2024-02-14T10:18:34;2.45;;;1.35;;
76125;SDS011;65174;48.138;21.002;2024-02-14T10:21:36;2.30;;;1.53;;
76125;SDS011;65174;48.138;21.002;2024-02-14T10:24:38;3.13;;;1.77;;
76125;SDS011;65174;48.138;21.002;2024-02-14T10:27:41;4.40;;;1.70;;
76125;SDS011;65174;48.138;21.002;2024-02-14T10:30:46;1.55;;;1.45;;
76125;SDS011;65174;48.138;21.002;2024-02-14T10:33:52;3.10;;;1.55;;
76125;SDS011;65174;48.138;21.002;2024-02-14T10:36:56;3.17;;;1.57;;
76125;SDS011;65174;48.138;21.002;2024-02-14T10:39:59;4.40;;;1.10;;
76125;SDS011;65174;48.138;21.002;2024-02-14T10:43:05;2.50;;;1.15;;
76125;SDS011;65174;48.138;21.002;2024-02-14T10:46:28;2.42;;;1.73;;
76125;SDS011;65174;48.138;21.002;2024-02-14T10:49:33;3.03;;;1.30;;
76125;SDS011;65174;48.138;21.002;2024-02-14T10:52:40;3.80;;;2.83;;
76125;SDS011;65174;48.138;21.002;2024-02-14T10:55:45;3.63;;;0.93;;
76125;SDS011;65174;48.138;21.002;2024-02-14T11:14:07;3.30;;;1.10;;
76125;SDS011;65174;48.138;21.002;2024-02-14T11:17:10;11.43;;;2.22;;
76125;SDS011;65174;48.138;21.002;2024-02-14T11:20:16;7.32;;;1.67;;
76125;SDS011;65174;48.138;21.002;2024-02-14T11:23:22;2.10;;;1.23;;
76125;SDS011;65174;48.138;21.002;2024-02-14T11:26:37;1.55;;;1.20;;
76125;SDS011;65174;48.138;21.002;2024-02-14T11:29:40;1.30;;;0.87;;
76125;SDS011;65174;48.138;21.002;2024-02-14T11:32:43;1.38;;;1.05;;
76125;SDS011;65174;48.138;21.002;2024-02-14T11:35:49;1.52;;;0.88;;
76125;SDS011;65174;48.138;21.002;2024-02-14T11:38:55;1.65;;;1.15;;
76125;SDS011;65174;48.138;21.002;2024-02-14T11:41:57;2.83;;;1.15;;
76125;SDS011;65174;48.138;21.002;2024-02-14T11:45:00;2.17;;;0.93;;
76125;SDS011;65174;48.138;21.002;2024-02-14T11:48:03;2.20;;;1.10;;
76125;SDS011;65174;48.138;21.002;2024-02-14T11:51:06;2.50;;;1.00;;
76125;SDS011;65174;48.138;21.002;2024-02-14T11:54:09;3.00;;;2.10;;
76125;SDS011;65174;48.138;21.002;2024-02-14T11:57:12;2.22;;;2.00;;
76125;SDS011;65174;48.138;21.002;2024-02-14T12:00:14;2.27;;;1.60;;
76125;SDS011;65174;48.138;21.002;2024-02-14T12:03:21;3.35;;;1.73;;
76125;SDS011;65174;48.138;21.002;2024-02-14T12:06:24;3.97;;;1.98;;
76125;SDS011;65174;48.138;21.002;2024-02-14T12:09:27;2.75;;;1.73;;
76125;SDS011;65174;48.138;21.002;2024-02-14T12:12:31;3.53;;;1.50;;
76125;SDS011;65174;48.138;21.002;2024-02-14T12:15:37;1.43;;;1.20;;
76125;SDS011;65174;48.138;21.002;2024-02-14T12:18:40;12.95;;;7.57;;
76125;SDS011;65174;48.138;21.002;2024-02-14T12:21:50;6.07;;;3.53;;
76125;SDS011;65174;48.138;21.002;2024-02-14T12:25:08;6.68;;;3.88;;
76125;SDS011;65174;48.138;21.002;2024-02-14T12:28:31;1.30;;;0.98;;
76125;SDS011;65174;48.138;21.002;2024-02-14T12:31:42;2.20;;;1.07;;
76125;SDS011;65174;48.138;21.002;2024-02-14T12:34:46;2.42;;;1.50;;
76125;SDS011;65174;48.138;21.002;2024-02-14T12:37:49;3.78;;;1.45;;
76125;SDS011;65174;48.138;21.002;2024-02-14T12:40:51;1.63;;;1.50;;
76125;SDS011;65174;48.138;21.002;2024-02-14T12:43:57;7.07;;;2.22;;
76125;SDS011;65174;48.138;21.002;2024-02-14T12:47:00;4.13;;;2.10;;
76125;SDS011;65174;48.138;21.002;2024-02-14T12:50:02;3.00;;;1.98;;
76125;SDS011;65174;48.138;21.002;2024-02-14T12:53:04;5.10;;;2.45;;
76125;SDS011;65174;48.138;21.002;2024-02-14T12:56:09;12.32;;;4.53;;
76125;SDS011;65174;48.138;21.002;2024-02-14T12:59:16;5.10;;;2.40;;
76125;SDS011;65174;48.138;21.002;2024-02-14T13:02:20;2.97;;;1.83;;
76125;SDS011;65174;48.138;21.002;2024-02-14T13:05:22;3.22;;;2.10;;
76125;SDS011;65174;48.138;21.002;2024-02-14T13:08:24;9.50;;;2.38;;
76125;SDS011;65174;48.138;21.002;2024-02-14T13:11:26;3.33;;;2.40;;
76125;SDS011;65174;48.138;21.002;2024-02-14T13:14:28;5.57;;;1.92;;
76125;SDS011;65174;48.138;21.002;2024-02-14T13:17:36;4.67;;;2.37;;
76125;SDS011;65174;48.138;21.002;2024-02-14T13:20:38;3.08;;;2.00;;
76125;SDS011;65174;48.138;21.002;2024-02-14T13:23:41;4.78;;;2.40;;
76125;SDS011;65174;48.138;21.002;2024-02-14T13:26:43;4.88;;;1.85;;
76125;SDS011;65174;48.138;21.002;2024-02-14T13:29:45;3.92;;;2.47;;
76125;SDS011;65174;48.138;21.002;2024-02-14T13:32:47;11.13;;;4.27;;
76125;SDS011;65174;48.138;21.002;2024-02-14T13:35:50;5.50;;;2.65;;
76125;SDS011;65174;48.138;21.002;2024-02-14T13:38:52;2.85;;;2.22;;
76125;SDS011;65174;48.138;21.002;2024-02-14T13:41:54;4.22;;;2.20;;
76125;SDS011;65174;48.138;21.002;2024-02-14T13:45:00;5.57;;;2.10;;
76125;SDS011;65174;48.138;21.002;2024-02-14T13:48:02;4.83;;;2.10;;
76125;SDS011;65174;48.138;21.002;2024-02-14T13:51:09;3.15;;;1.73;;
76125;SDS011;65174;48.138;21.002;2024-02-14T13:54:11;2.85;;;1.85;;
76125;SDS011;65174;48.138;21.002;2024-02-14T13:57:13;4.15;;;2.22;;
76125;SDS011;65174;48.138;21.002;2024-02-14T14:00:18;5.60;;;3.15;;
76125;SDS011;65174;48.138;21.002;2024-02-14T14:03:20;5.20;;;2.07;;
76125;SDS011;65174;48.138;21.002;2024-02-14T14:06:22;8.88;;;1.90;;
76125;SDS011;65174;48.138;21.002;2024-02-14T14:09:25;5.25;;;2.35;;
76125;SDS011;65174;48.138;21.002;2024-02-14T14:12:28;4.22;;;2.38;;
76125;SDS011;65174;48.138;21.002;2024-02-14T14:15:30;5.20;;;2.58;;
76125;SDS011;65174;48.138;21.002;2024-02-14T14:18:35;7.30;;;2.27;;
76125;SDS011;65174;48.138;21.002;2024-02-14T14:21:37;17.05;;;3.28;;
76125;SDS011;65174;48.138;21.002;2024-02-14T14:24:40;2.95;;;1.92;;
76125;SDS011;65174;48.138;21.002;2024-02-14T14:27:42;3.30;;;1.77;;
76125;SDS011;65174;48.138;21.002;2024-02-14T14:30:45;2.72;;;1.73;;
76125;SDS011;65174;48.138;21.002;2024-02-14T14:33:47;4.70;;;1.83;;
76125;SDS011;65174;48.138;21.002;2024-02-14T14:36:50;2.85;;;1.90;;
76125;SDS011;65174;48.138;21.002;2024-02-14T14:39:55;4.82;;;2.42;;
76125;SDS011;65174;48.138;21.002;2024-02-14T14:42:58;2.97;;;1.65;;
76125;SDS011;65174;48.138;21.002;2024-02-14T14:46:00;4.53;;;2.00;;
76125;SDS011;65174;48.138;21.002;2024-02-14T14:49:02;3.00;;;2.00;;
76125;SDS011;65174;48.138;21.002;2024-02-14T14:52:05;3.70;;;2.33;;
76125;SDS011;65174;48.138;21.002;2024-02-14T14:55:07;3.35;;;1.95;;
76125;SDS011;65174;48.138;21.002;2024-02-14T14:58:12;2.95;;;2.25;;
76125;SDS011;65174;48.138;21.002;2024-02-14T15:01:15;4.38;;;2.40;;
76125;SDS011;65174;48.138;21.002;2024-02-14T15:04:17;7.33;;;2.80;;
76125;SDS011;65174;48.138;21.002;2024-02-14T15:07:21;3.38;;;1.95;;
76125;SDS011;65174;48.138;21.002;2024-02-14T15:10:24;5.25;;;1.80;;
76125;SDS011;65174;48.138;21.002;2024-02-14T15:13:26;5.50;;;2.13;;
76125;SDS011;65174;48.138;21.002;2024-02-14T15:16:29;18.95;;;3.50;;
76125;SDS011;65174;48.138;21.002;2024-02-14T15:19:32;10.57;;;3.23;;
76125;SDS011;65174;48.138;21.002;2024-02-14T15:22:34;5.55;;;2.80;;
76125;SDS011;65174;48.138;21.002;2024-02-14T15:25:36;4.07;;;2.47;;
76125;SDS011;65174;48.138;21.002;2024-02-14T15:28:38;7.50;;;2.40;;
76125;SDS011;65174;48.138;21.002;2024-02-14T15:31:46;28.63;;;4.32;;
76125;SDS011;65174;48.138;21.002;2024-02-14T15:35:07;7.53;;;3.60;;
76125;SDS011;65174;48.138;21.002;2024-02-14T15:38:10;13.70;;;5.78;;
76125;SDS011;65174;48.138;21.002;2024-02-14T15:41:17;17.75;;;6.68;;
76125;SDS011;65174;48.138;21.002;2024-02-14T15:44:19;7.80;;;4.60;;
76125;SDS011;65174;48.138;21.002;2024-02-14T15:47:21;5.38;;;3.42;;
76125;SDS011;65174;48.138;21.002;2024-02-14T15:50:23;6.20;;;3.47;;
76125;SDS011;65174;48.138;21.002;2024-02-14T15:53:26;19.75;;;5.43;;
76125;SDS011;65174;48.138;21.002;2024-02-14T15:56:31;13.90;;;4.93;;
76125;SDS011;65174;48.138;21.002;2024-02-14T15:59:34;22.63;;;6.82;;
76125;SDS011;65174;48.138;21.002;2024-02-14T16:02:36;12.13;;;4.40;;
76125;SDS011;65174;48.138;21.002;2024-02-14T16:05:38;7.40;;;3.87;;
76125;SDS011;65174;48.138;21.002;2024-02-14T16:08:40;7.40;;;3.75;;
76125;SDS011;65174;48.138;21.002;2024-02-14T16:11:43;14.57;;;4.22;;
76125;SDS011;65174;48.138;21.002;2024-02-14T16:14:45;12.75;;;6.10;;
76125;SDS011;65174;48.138;21.002;2024-02-14T16:17:47;21.27;;;11.55;;
76125;SDS011;65174;48.138;21.002;2024-02-14T16:20:49;36.67;;;7.00;;
76125;SDS011;65174;48.138;21.002;2024-02-14T16:23:53;33.92;;;10.82;;
76125;SDS011;65174;48.138;21.002;2024-02-14T16:26:55;64.00;;;21.70;;
76125;SDS011;65174;48.138;21.002;2024-02-14T16:29:58;103.47;;;33.60;;
76125;SDS011;65174;48.138;21.002;2024-02-14T16:33:01;160.32;;;60.47;;
76125;SDS011;65174;48.138;21.002;2024-02-14T16:36:03;108.03;;;45.70;;
76125;SDS011;65174;48.138;21.002;2024-02-14T16:39:06;99.50;;;40.30;;
76125;SDS011;65174;48.138;21.002;2024-02-14T16:42:10;69.22;;;31.08;;
76125;SDS011;65174;48.138;21.002;2024-02-14T16:45:13;44.15;;;21.10;;
76125;SDS011;65174;48.138;21.002;2024-02-14T16:48:18;45.92;;;20.50;;
76125;SDS011;65174;48.138;21.002;2024-02-14T16:51:20;27.77;;;12.57;;
76125;SDS011;65174;48.138;21.002;2024-02-14T16:54:22;26.25;;;10.82;;
76125;SDS011;65174;48.138;21.002;2024-02-14T16:57:25;50.67;;;18.70;;
76125;SDS011;65174;48.138;21.002;2024-02-14T17:00:27;51.05;;;17.98;;
76125;SDS011;65174;48.138;21.002;2024-02-14T17:03:30;47.38;;;18.48;;
76125;SDS011;65174;48.138;21.002;2024-02-14T17:06:32;48.67;;;20.50;;
76125;SDS011;65174;48.138;21.002;2024-02-14T17:09:34;43.60;;;16.45;;
76125;SDS011;65174;48.138;21.002;2024-02-14T17:12:37;46.55;;;15.50;;
76125;SDS011;65174;48.138;21.002;2024-02-14T17:15:39;50.10;;;16.92;;
76125;SDS011;65174;48.138;21.002;2024-02-14T17:18:41;45.40;;;17.38;;
76125;SDS011;65174;48.138;21.002;2024-02-14T17:21:44;49.57;;;17.80;;
76125;SDS011;65174;48.138;21.002;2024-02-14T17:24:47;49.63;;;16.75;;
76125;SDS011;65174;48.138;21.002;2024-02-14T17:27:50;44.80;;;19.85;;
76125;SDS011;65174;48.138;21.002;2024-02-14T17:30:52;128.20;;;37.25;;
76125;SDS011;65174;48.138;21.002;2024-02-14T17:33:55;103.03;;;33.08;;
76125;SDS011;65174;48.138;21.002;2024-02-14T17:37:00;102.33;;;29.97;;
76125;SDS011;65174;48.138;21.002;2024-02-14T17:40:02;73.35;;;21.83;;
76125;SDS011;65174;48.138;21.002;2024-02-14T17:43:06;38.38;;;12.70;;
76125;SDS011;65174;48.138;21.002;2024-02-14T17:46:08;23.55;;;10.85;;
76125;SDS011;65174;48.138;21.002;2024-02-14T17:49:12;63.10;;;20.52;;
76125;SDS011;65174;48.138;21.002;2024-02-14T17:52:15;73.77;;;23.40;;
76125;SDS011;65174;48.138;21.002;2024-02-14T17:55:21;61.45;;;21.70;;
76125;SDS011;65174;48.138;21.002;2024-02-14T17:58:23;54.13;;;18.80;;
76125;SDS011;65174;48.138;21.002;2024-02-14T18:01:25;49.72;;;20.42;;
76125;SDS011;65174;48.138;21.002;2024-02-14T18:04:28;122.15;;;37.70;;
76125;SDS011;65174;48.138;21.002;2024-02-14T18:07:31;157.00;;;45.43;;
76125;SDS011;65174;48.138;21.002;2024-02-14T18:10:33;91.95;;;31.05;;
76125;SDS011;65174;48.138;21.002;2024-02-14T18:13:35;72.70;;;25.35;;
76125;SDS011;65174;48.138;21.002;2024-02-14T18:16:37;71.25;;;24.95;;
76125;SDS011;65174;48.138;21.002;2024-02-14T18:19:39;56.78;;;22.30;;
76125;SDS011;65174;48.138;21.002;2024-02-14T18:22:41;114.53;;;37.47;;